Lisbon Center, Maine
Current Conditions -  °F | °C
As of 5:55 AM on Thursday 23 Oct 2014 (Local Time) from KLEW Reporting Station
Overcast Overcast  
Wind Chill: 39°   Ceiling: 900
Heat Index: 46°   Visibility: 8mi
Dew Point: 43°   Wind: 20mph
Humidity: 87%   Direction: 30°NNE
Pressure: 29.89"   Gusts: 26mph
Location:  44.0197°N, 70.0936°W
Report Text: KLEW 230955Z AUTO 03017G23KT 8SM BKN009 OVC016 08/06 A2989 RMK AO1
Loading
Personal Weather Stations






























Interactive Weather Map
Tropical Storm Tracking
New forecast layout! Learn more

10-Day Weather Forecast

Advertisements
Track Severe Weather on mobile